sensor_id;sensor_type;location;lat;lon;timestamp;P1;durP1;ratioP1;P2;durP2;ratioP2
757;SDS011;363;48.764;9.172;2024-02-26T01:15:46;2.50;;;2.30;;
757;SDS011;363;48.764;9.172;2024-02-26T01:18:11;2.40;;;2.20;;
757;SDS011;363;48.764;9.172;2024-02-26T01:20:37;2.07;;;1.97;;
757;SDS011;363;48.764;9.172;2024-02-26T01:23:17;2.30;;;2.10;;
757;SDS011;363;48.764;9.172;2024-02-26T01:25:49;2.83;;;2.13;;
757;SDS011;363;48.764;9.172;2024-02-26T01:28:39;2.10;;;1.90;;
757;SDS011;363;48.764;9.172;2024-02-26T01:31:34;2.20;;;1.88;;
757;SDS011;363;48.764;9.172;2024-02-26T01:34:30;3.30;;;2.33;;
757;SDS011;363;48.764;9.172;2024-02-26T01:40:18;3.45;;;2.50;;
757;SDS011;363;48.764;9.172;2024-02-26T01:43:07;2.55;;;1.95;;
757;SDS011;363;48.764;9.172;2024-02-26T01:45:47;2.00;;;1.80;;
757;SDS011;363;48.764;9.172;2024-02-26T01:48:27;2.75;;;2.20;;
757;SDS011;363;48.764;9.172;2024-02-26T01:50:58;2.22;;;2.00;;
757;SDS011;363;48.764;9.172;2024-02-26T01:53:34;2.20;;;2.00;;
757;SDS011;363;48.764;9.172;2024-02-26T01:56:09;2.08;;;1.88;;
757;SDS011;363;48.764;9.172;2024-02-26T02:01:19;1.80;;;1.70;;
757;SDS011;363;48.764;9.172;2024-02-26T02:04:10;2.10;;;1.90;;
757;SDS011;363;48.764;9.172;2024-02-26T02:06:39;2.35;;;2.13;;
757;SDS011;363;48.764;9.172;2024-02-26T02:09:24;2.13;;;1.85;;
757;SDS011;363;48.764;9.172;2024-02-26T02:12:14;3.10;;;1.80;;
757;SDS011;363;48.764;9.172;2024-02-26T02:14:56;2.15;;;1.95;;
757;SDS011;363;48.764;9.172;2024-02-26T02:17:41;1.65;;;1.55;;
757;SDS011;363;48.764;9.172;2024-02-26T02:20:17;2.13;;;1.85;;
757;SDS011;363;48.764;9.172;2024-02-26T02:22:49;2.08;;;1.55;;
757;SDS011;363;48.764;9.172;2024-02-26T02:25:24;2.63;;;2.22;;
757;SDS011;363;48.764;9.172;2024-02-26T02:28:15;2.38;;;2.17;;
757;SDS011;363;48.764;9.172;2024-02-26T02:30:50;1.80;;;1.70;;
757;SDS011;363;48.764;9.172;2024-02-26T02:33:27;2.15;;;1.95;;
757;SDS011;363;48.764;9.172;2024-02-26T02:36:01;2.20;;;2.00;;
757;SDS011;363;48.764;9.172;2024-02-26T02:38:37;2.60;;;2.40;;
757;SDS011;363;48.764;9.172;2024-02-26T02:41:09;2.03;;;1.45;;
757;SDS011;363;48.764;9.172;2024-02-26T02:43:40;2.35;;;2.15;;
757;SDS011;363;48.764;9.172;2024-02-26T02:46:15;3.35;;;2.22;;
757;SDS011;363;48.764;9.172;2024-02-26T02:48:53;1.80;;;1.70;;
757;SDS011;363;48.764;9.172;2024-02-26T02:51:38;2.22;;;1.83;;
757;SDS011;363;48.764;9.172;2024-02-26T02:54:07;1.77;;;1.65;;
757;SDS011;363;48.764;9.172;2024-02-26T02:56:58;2.40;;;2.20;;
757;SDS011;363;48.764;9.172;2024-02-26T02:59:35;1.60;;;1.30;;
757;SDS011;363;48.764;9.172;2024-02-26T03:02:04;1.75;;;1.65;;
757;SDS011;363;48.764;9.172;2024-02-26T03:04:32;2.17;;;1.98;;
757;SDS011;363;48.764;9.172;2024-02-26T03:07:08;1.35;;;1.25;;
757;SDS011;363;48.764;9.172;2024-02-26T03:10:09;1.65;;;1.55;;
757;SDS011;363;48.764;9.172;2024-02-26T03:12:43;2.20;;;2.00;;
757;SDS011;363;48.764;9.172;2024-02-26T03:15:16;1.95;;;1.85;;
757;SDS011;363;48.764;9.172;2024-02-26T03:17:48;3.38;;;1.95;;
757;SDS011;363;48.764;9.172;2024-02-26T03:20:19;3.38;;;1.42;;
757;SDS011;363;48.764;9.172;2024-02-26T03:22:49;2.00;;;1.80;;
757;SDS011;363;48.764;9.172;2024-02-26T03:25:20;1.70;;;1.60;;
757;SDS011;363;48.764;9.172;2024-02-26T03:27:51;1.90;;;1.70;;
757;SDS011;363;48.764;9.172;2024-02-26T03:30:20;2.03;;;1.83;;
757;SDS011;363;48.764;9.172;2024-02-26T03:32:50;2.28;;;1.98;;
757;SDS011;363;48.764;9.172;2024-02-26T03:35:21;3.08;;;1.92;;
757;SDS011;363;48.764;9.172;2024-02-26T03:37:47;1.73;;;1.60;;
757;SDS011;363;48.764;9.172;2024-02-26T03:40:24;2.05;;;1.70;;
757;SDS011;363;48.764;9.172;2024-02-26T03:42:52;2.17;;;1.80;;
757;SDS011;363;48.764;9.172;2024-02-26T03:45:22;1.90;;;1.80;;
757;SDS011;363;48.764;9.172;2024-02-26T03:47:56;2.08;;;1.92;;
757;SDS011;363;48.764;9.172;2024-02-26T03:50:25;1.75;;;1.65;;
757;SDS011;363;48.764;9.172;2024-02-26T03:52:50;1.80;;;1.70;;
757;SDS011;363;48.764;9.172;2024-02-26T03:55:19;2.00;;;1.80;;
757;SDS011;363;48.764;9.172;2024-02-26T03:57:52;2.35;;;1.60;;
757;SDS011;363;48.764;9.172;2024-02-26T04:00:18;1.80;;;1.70;;
757;SDS011;363;48.764;9.172;2024-02-26T04:02:47;1.77;;;1.60;;
757;SDS011;363;48.764;9.172;2024-02-26T04:05:13;2.38;;;1.67;;
757;SDS011;363;48.764;9.172;2024-02-26T04:07:42;2.00;;;1.70;;
757;SDS011;363;48.764;9.172;2024-02-26T04:10:20;1.75;;;1.48;;
757;SDS011;363;48.764;9.172;2024-02-26T04:12:48;2.00;;;1.90;;
757;SDS011;363;48.764;9.172;2024-02-26T04:15:14;2.42;;;2.22;;
757;SDS011;363;48.764;9.172;2024-02-26T04:17:39;2.10;;;1.80;;
757;SDS011;363;48.764;9.172;2024-02-26T04:20:12;2.58;;;1.75;;
757;SDS011;363;48.764;9.172;2024-02-26T04:22:44;2.10;;;1.90;;
757;SDS011;363;48.764;9.172;2024-02-26T04:25:14;1.95;;;1.75;;
757;SDS011;363;48.764;9.172;2024-02-26T04:27:40;2.20;;;1.95;;
757;SDS011;363;48.764;9.172;2024-02-26T04:30:13;2.03;;;1.90;;
757;SDS011;363;48.764;9.172;2024-02-26T05:27:53;3.25;;;2.30;;
757;SDS011;363;48.764;9.172;2024-02-26T05:30:22;2.20;;;2.00;;
757;SDS011;363;48.764;9.172;2024-02-26T05:33:20;2.70;;;2.50;;
757;SDS011;363;48.764;9.172;2024-02-26T05:35:48;2.50;;;2.30;;
757;SDS011;363;48.764;9.172;2024-02-26T05:38:13;3.37;;;2.43;;
757;SDS011;363;48.764;9.172;2024-02-26T05:40:48;2.50;;;2.30;;
757;SDS011;363;48.764;9.172;2024-02-26T05:48:01;2.85;;;2.55;;
757;SDS011;363;48.764;9.172;2024-02-26T05:51:01;2.78;;;2.25;;
757;SDS011;363;48.764;9.172;2024-02-26T05:53:31;4.05;;;3.00;;
757;SDS011;363;48.764;9.172;2024-02-26T05:55:57;2.57;;;2.37;;
757;SDS011;363;48.764;9.172;2024-02-26T05:58:25;2.30;;;2.10;;
757;SDS011;363;48.764;9.172;2024-02-26T06:00:50;3.30;;;3.03;;
757;SDS011;363;48.764;9.172;2024-02-26T06:03:16;3.47;;;2.97;;
757;SDS011;363;48.764;9.172;2024-02-26T06:05:42;4.23;;;2.93;;
757;SDS011;363;48.764;9.172;2024-02-26T06:08:08;3.63;;;3.20;;
757;SDS011;363;48.764;9.172;2024-02-26T06:10:33;4.00;;;3.40;;
757;SDS011;363;48.764;9.172;2024-02-26T06:12:59;3.00;;;2.70;;
757;SDS011;363;48.764;9.172;2024-02-26T06:15:25;4.67;;;3.07;;
757;SDS011;363;48.764;9.172;2024-02-26T06:17:52;3.78;;;2.55;;
757;SDS011;363;48.764;9.172;2024-02-26T06:20:18;2.85;;;2.15;;
757;SDS011;363;48.764;9.172;2024-02-26T06:22:43;2.57;;;2.37;;
757;SDS011;363;48.764;9.172;2024-02-26T06:25:09;2.90;;;2.60;;
757;SDS011;363;48.764;9.172;2024-02-26T06:27:37;2.70;;;2.40;;
757;SDS011;363;48.764;9.172;2024-02-26T06:30:02;5.93;;;3.00;;
757;SDS011;363;48.764;9.172;2024-02-26T06:32:28;3.25;;;2.78;;
757;SDS011;363;48.764;9.172;2024-02-26T06:34:54;4.47;;;4.03;;
757;SDS011;363;48.764;9.172;2024-02-26T06:37:20;3.70;;;3.40;;
757;SDS011;363;48.764;9.172;2024-02-26T06:39:46;2.50;;;2.30;;
757;SDS011;363;48.764;9.172;2024-02-26T06:42:11;4.30;;;2.70;;
757;SDS011;363;48.764;9.172;2024-02-26T06:44:37;3.00;;;2.70;;
757;SDS011;363;48.764;9.172;2024-02-26T06:47:02;3.57;;;2.80;;
757;SDS011;363;48.764;9.172;2024-02-26T06:49:29;3.40;;;3.10;;
757;SDS011;363;48.764;9.172;2024-02-26T06:51:55;4.73;;;2.87;;
757;SDS011;363;48.764;9.172;2024-02-26T06:54:20;4.07;;;2.90;;
757;SDS011;363;48.764;9.172;2024-02-26T06:56:46;3.40;;;2.70;;
757;SDS011;363;48.764;9.172;2024-02-26T06:59:13;4.35;;;3.28;;
757;SDS011;363;48.764;9.172;2024-02-26T07:01:41;5.60;;;4.13;;
757;SDS011;363;48.764;9.172;2024-02-26T07:04:07;3.67;;;2.58;;
757;SDS011;363;48.764;9.172;2024-02-26T07:06:32;2.63;;;2.43;;
757;SDS011;363;48.764;9.172;2024-02-26T07:08:58;5.60;;;2.67;;
757;SDS011;363;48.764;9.172;2024-02-26T07:11:23;4.70;;;3.03;;
757;SDS011;363;48.764;9.172;2024-02-26T07:13:49;6.60;;;4.40;;
757;SDS011;363;48.764;9.172;2024-02-26T07:16:15;4.20;;;2.90;;
757;SDS011;363;48.764;9.172;2024-02-26T07:18:40;4.40;;;3.27;;
757;SDS011;363;48.764;9.172;2024-02-26T07:21:06;4.63;;;2.87;;
757;SDS011;363;48.764;9.172;2024-02-26T07:23:33;5.00;;;3.80;;
757;SDS011;363;48.764;9.172;2024-02-26T07:25:58;5.33;;;3.03;;
757;SDS011;363;48.764;9.172;2024-02-26T07:28:24;4.30;;;3.00;;
757;SDS011;363;48.764;9.172;2024-02-26T07:30:50;4.13;;;2.80;;
757;SDS011;363;48.764;9.172;2024-02-26T07:33:15;5.00;;;2.80;;
757;SDS011;363;48.764;9.172;2024-02-26T07:35:41;4.70;;;4.20;;
757;SDS011;363;48.764;9.172;2024-02-26T07:38:06;3.53;;;3.10;;
757;SDS011;363;48.764;9.172;2024-02-26T07:40:32;3.23;;;2.77;;
757;SDS011;363;48.764;9.172;2024-02-26T07:42:58;4.97;;;3.20;;
757;SDS011;363;48.764;9.172;2024-02-26T07:45:23;3.57;;;3.23;;
757;SDS011;363;48.764;9.172;2024-02-26T07:47:49;3.37;;;2.93;;
757;SDS011;363;48.764;9.172;2024-02-26T07:50:16;3.38;;;3.08;;
757;SDS011;363;48.764;9.172;2024-02-26T07:52:42;5.50;;;3.10;;
757;SDS011;363;48.764;9.172;2024-02-26T07:55:09;3.17;;;2.88;;
757;SDS011;363;48.764;9.172;2024-02-26T07:57:35;3.03;;;2.73;;
757;SDS011;363;48.764;9.172;2024-02-26T08:00:02;4.28;;;3.55;;
757;SDS011;363;48.764;9.172;2024-02-26T08:02:28;4.07;;;3.70;;
757;SDS011;363;48.764;9.172;2024-02-26T08:04:54;4.20;;;3.40;;
757;SDS011;363;48.764;9.172;2024-02-26T08:07:20;4.47;;;3.27;;
757;SDS011;363;48.764;9.172;2024-02-26T08:09:46;4.35;;;3.95;;
757;SDS011;363;48.764;9.172;2024-02-26T08:12:12;4.95;;;3.80;;
757;SDS011;363;48.764;9.172;2024-02-26T08:14:37;4.13;;;3.73;;
757;SDS011;363;48.764;9.172;2024-02-26T08:17:03;4.63;;;4.20;;
757;SDS011;363;48.764;9.172;2024-02-26T08:19:29;8.33;;;4.30;;
757;SDS011;363;48.764;9.172;2024-02-26T08:21:54;4.03;;;3.50;;
757;SDS011;363;48.764;9.172;2024-02-26T08:24:20;5.07;;;4.10;;
757;SDS011;363;48.764;9.172;2024-02-26T08:26:45;5.70;;;4.50;;
757;SDS011;363;48.764;9.172;2024-02-26T08:29:11;7.23;;;6.20;;
757;SDS011;363;48.764;9.172;2024-02-26T08:31:37;5.40;;;4.90;;
757;SDS011;363;48.764;9.172;2024-02-26T08:34:06;5.10;;;4.60;;
757;SDS011;363;48.764;9.172;2024-02-26T08:36:33;4.18;;;3.10;;
757;SDS011;363;48.764;9.172;2024-02-26T08:38:59;2.95;;;2.75;;
757;SDS011;363;48.764;9.172;2024-02-26T08:41:24;5.53;;;2.93;;
757;SDS011;363;48.764;9.172;2024-02-26T08:43:51;4.20;;;2.50;;
757;SDS011;363;48.764;9.172;2024-02-26T08:46:17;2.67;;;1.80;;
757;SDS011;363;48.764;9.172;2024-02-26T08:48:42;2.33;;;2.13;;
757;SDS011;363;48.764;9.172;2024-02-26T08:51:08;2.60;;;2.40;;
757;SDS011;363;48.764;9.172;2024-02-26T08:53:35;3.85;;;2.50;;
757;SDS011;363;48.764;9.172;2024-02-26T08:56:01;2.33;;;2.13;;
757;SDS011;363;48.764;9.172;2024-02-26T08:58:27;3.37;;;2.33;;
757;SDS011;363;48.764;9.172;2024-02-26T09:00:53;3.38;;;2.10;;
757;SDS011;363;48.764;9.172;2024-02-26T09:03:19;2.03;;;1.87;;
757;SDS011;363;48.764;9.172;2024-02-26T09:05:46;2.63;;;2.42;;
757;SDS011;363;48.764;9.172;2024-02-26T09:08:12;3.28;;;2.70;;
757;SDS011;363;48.764;9.172;2024-02-26T09:10:38;3.50;;;2.90;;
757;SDS011;363;48.764;9.172;2024-02-26T09:13:04;3.38;;;2.70;;
757;SDS011;363;48.764;9.172;2024-02-26T09:15:30;4.50;;;3.73;;
757;SDS011;363;48.764;9.172;2024-02-26T09:17:56;5.83;;;4.90;;
757;SDS011;363;48.764;9.172;2024-02-26T09:20:22;4.75;;;3.40;;
757;SDS011;363;48.764;9.172;2024-02-26T09:22:48;4.53;;;3.10;;
757;SDS011;363;48.764;9.172;2024-02-26T09:25:14;6.65;;;2.53;;
757;SDS011;363;48.764;9.172;2024-02-26T09:27:43;3.30;;;3.00;;
757;SDS011;363;48.764;9.172;2024-02-26T09:30:12;3.60;;;3.28;;
757;SDS011;363;48.764;9.172;2024-02-26T09:32:38;3.35;;;2.63;;
757;SDS011;363;48.764;9.172;2024-02-26T09:35:05;3.95;;;3.42;;
757;SDS011;363;48.764;9.172;2024-02-26T09:37:31;3.20;;;2.90;;
757;SDS011;363;48.764;9.172;2024-02-26T09:39:58;3.35;;;3.05;;
757;SDS011;363;48.764;9.172;2024-02-26T09:42:25;3.97;;;3.57;;
757;SDS011;363;48.764;9.172;2024-02-26T09:44:51;4.70;;;3.80;;
757;SDS011;363;48.764;9.172;2024-02-26T09:47:23;4.15;;;3.80;;
757;SDS011;363;48.764;9.172;2024-02-26T09:49:52;4.38;;;3.70;;
757;SDS011;363;48.764;9.172;2024-02-26T09:52:18;3.92;;;3.53;;
757;SDS011;363;48.764;9.172;2024-02-26T09:54:48;3.50;;;3.20;;
757;SDS011;363;48.764;9.172;2024-02-26T09:57:17;6.18;;;3.80;;
757;SDS011;363;48.764;9.172;2024-02-26T09:59:43;3.57;;;3.20;;
757;SDS011;363;48.764;9.172;2024-02-26T10:02:12;4.40;;;3.83;;
757;SDS011;363;48.764;9.172;2024-02-26T10:04:39;4.90;;;4.30;;
757;SDS011;363;48.764;9.172;2024-02-26T10:07:09;6.18;;;3.83;;
757;SDS011;363;48.764;9.172;2024-02-26T10:09:38;6.13;;;4.78;;
757;SDS011;363;48.764;9.172;2024-02-26T10:12:04;4.78;;;2.72;;
757;SDS011;363;48.764;9.172;2024-02-26T10:14:32;4.10;;;2.50;;
757;SDS011;363;48.764;9.172;2024-02-26T10:16:57;3.57;;;3.27;;
757;SDS011;363;48.764;9.172;2024-02-26T10:19:26;2.92;;;2.60;;
757;SDS011;363;48.764;9.172;2024-02-26T10:21:55;3.15;;;2.90;;
757;SDS011;363;48.764;9.172;2024-02-26T10:24:23;2.50;;;2.30;;
757;SDS011;363;48.764;9.172;2024-02-26T10:26:51;3.40;;;3.10;;
757;SDS011;363;48.764;9.172;2024-02-26T10:29:19;3.40;;;2.80;;
757;SDS011;363;48.764;9.172;2024-02-26T10:31:45;4.50;;;3.25;;
757;SDS011;363;48.764;9.172;2024-02-26T10:34:11;3.67;;;3.37;;
757;SDS011;363;48.764;9.172;2024-02-26T10:36:36;5.20;;;4.17;;
757;SDS011;363;48.764;9.172;2024-02-26T10:39:03;3.70;;;3.40;;
757;SDS011;363;48.764;9.172;2024-02-26T10:41:30;3.58;;;3.28;;
757;SDS011;363;48.764;9.172;2024-02-26T10:43:57;3.90;;;3.50;;
757;SDS011;363;48.764;9.172;2024-02-26T10:46:23;3.60;;;3.30;;
757;SDS011;363;48.764;9.172;2024-02-26T10:48:50;5.28;;;3.65;;
757;SDS011;363;48.764;9.172;2024-02-26T10:51:17;9.43;;;5.13;;
757;SDS011;363;48.764;9.172;2024-02-26T10:53:51;6.53;;;3.97;;
757;SDS011;363;48.764;9.172;2024-02-26T10:56:21;4.15;;;3.22;;
757;SDS011;363;48.764;9.172;2024-02-26T10:58:50;3.88;;;2.22;;
757;SDS011;363;48.764;9.172;2024-02-26T11:01:19;2.03;;;1.83;;
757;SDS011;363;48.764;9.172;2024-02-26T11:03:48;3.15;;;2.20;;
757;SDS011;363;48.764;9.172;2024-02-26T11:06:15;1.85;;;1.75;;
757;SDS011;363;48.764;9.172;2024-02-26T11:08:42;2.28;;;1.80;;
757;SDS011;363;48.764;9.172;2024-02-26T11:11:08;2.78;;;2.08;;
757;SDS011;363;48.764;9.172;2024-02-26T11:13:37;4.50;;;2.80;;
757;SDS011;363;48.764;9.172;2024-02-26T11:16:04;6.45;;;3.20;;
757;SDS011;363;48.764;9.172;2024-02-26T11:18:31;4.03;;;3.63;;
757;SDS011;363;48.764;9.172;2024-02-26T11:20:59;4.18;;;3.38;;
757;SDS011;363;48.764;9.172;2024-02-26T11:23:25;3.40;;;3.00;;
757;SDS011;363;48.764;9.172;2024-02-26T11:25:51;3.87;;;3.13;;
757;SDS011;363;48.764;9.172;2024-02-26T11:28:19;3.10;;;2.85;;
757;SDS011;363;48.764;9.172;2024-02-26T11:30:47;5.00;;;3.80;;
757;SDS011;363;48.764;9.172;2024-02-26T11:33:14;3.58;;;3.20;;
757;SDS011;363;48.764;9.172;2024-02-26T11:35:41;2.42;;;2.22;;
757;SDS011;363;48.764;9.172;2024-02-26T11:38:07;3.75;;;3.22;;
757;SDS011;363;48.764;9.172;2024-02-26T11:40:33;5.83;;;3.30;;
757;SDS011;363;48.764;9.172;2024-02-26T11:43:04;3.70;;;3.35;;
757;SDS011;363;48.764;9.172;2024-02-26T11:48:14;5.00;;;2.72;;
757;SDS011;363;48.764;9.172;2024-02-26T11:50:49;6.40;;;3.55;;
757;SDS011;363;48.764;9.172;2024-02-26T11:53:19;6.85;;;4.03;;
757;SDS011;363;48.764;9.172;2024-02-26T11:58:53;8.73;;;3.55;;
757;SDS011;363;48.764;9.172;2024-02-26T12:04:23;2.90;;;2.70;;
757;SDS011;363;48.764;9.172;2024-02-26T12:06:55;3.55;;;2.63;;
757;SDS011;363;48.764;9.172;2024-02-26T12:11:57;3.22;;;2.95;;
757;SDS011;363;48.764;9.172;2024-02-26T12:14:26;3.23;;;2.93;;
757;SDS011;363;48.764;9.172;2024-02-26T12:16:52;3.40;;;3.10;;
757;SDS011;363;48.764;9.172;2024-02-26T12:19:19;3.60;;;2.83;;
757;SDS011;363;48.764;9.172;2024-02-26T12:21:46;3.83;;;3.40;;
757;SDS011;363;48.764;9.172;2024-02-26T12:24:17;5.00;;;2.53;;
757;SDS011;363;48.764;9.172;2024-02-26T12:26:46;5.18;;;3.40;;
757;SDS011;363;48.764;9.172;2024-02-26T12:29:12;5.43;;;3.10;;
757;SDS011;363;48.764;9.172;2024-02-26T12:31:38;3.75;;;3.38;;
757;SDS011;363;48.764;9.172;2024-02-26T12:34:05;3.85;;;3.10;;
757;SDS011;363;48.764;9.172;2024-02-26T12:36:32;5.90;;;3.03;;
757;SDS011;363;48.764;9.172;2024-02-26T12:39:01;3.88;;;2.90;;
757;SDS011;363;48.764;9.172;2024-02-26T12:41:33;3.03;;;2.70;;
757;SDS011;363;48.764;9.172;2024-02-26T12:43:59;7.00;;;3.40;;
757;SDS011;363;48.764;9.172;2024-02-26T12:46:26;4.72;;;2.97;;
757;SDS011;363;48.764;9.172;2024-02-26T12:48:52;3.87;;;2.30;;
757;SDS011;363;48.764;9.172;2024-02-26T12:51:21;2.65;;;2.40;;
757;SDS011;363;48.764;9.172;2024-02-26T12:53:47;2.83;;;2.53;;
757;SDS011;363;48.764;9.172;2024-02-26T12:56:15;3.13;;;2.83;;
757;SDS011;363;48.764;9.172;2024-02-26T12:58:41;4.43;;;3.40;;
757;SDS011;363;48.764;9.172;2024-02-26T13:01:07;3.28;;;2.67;;
757;SDS011;363;48.764;9.172;2024-02-26T13:03:41;3.72;;;2.50;;
757;SDS011;363;48.764;9.172;2024-02-26T13:06:07;3.33;;;2.60;;
757;SDS011;363;48.764;9.172;2024-02-26T13:08:33;3.03;;;2.63;;
757;SDS011;363;48.764;9.172;2024-02-26T13:10:59;7.68;;;6.88;;
757;SDS011;363;48.764;9.172;2024-02-26T13:13:25;2.90;;;2.70;;
757;SDS011;363;48.764;9.172;2024-02-26T13:16:00;2.97;;;2.60;;
757;SDS011;363;48.764;9.172;2024-02-26T13:18:28;4.38;;;2.95;;
757;SDS011;363;48.764;9.172;2024-02-26T13:21:05;2.75;;;2.38;;
757;SDS011;363;48.764;9.172;2024-02-26T13:23:35;6.32;;;4.50;;
757;SDS011;363;48.764;9.172;2024-02-26T13:26:01;4.57;;;3.70;;
757;SDS011;363;48.764;9.172;2024-02-26T13:28:26;3.40;;;3.10;;
757;SDS011;363;48.764;9.172;2024-02-26T13:30:56;3.17;;;2.90;;
757;SDS011;363;48.764;9.172;2024-02-26T13:33:24;2.72;;;2.53;;
757;SDS011;363;48.764;9.172;2024-02-26T13:35:51;2.65;;;2.25;;
757;SDS011;363;48.764;9.172;2024-02-26T13:38:17;1.90;;;1.80;;
757;SDS011;363;48.764;9.172;2024-02-26T13:40:43;9.77;;;2.80;;
757;SDS011;363;48.764;9.172;2024-02-26T13:43:09;2.10;;;1.90;;
757;SDS011;363;48.764;9.172;2024-02-26T13:45:36;2.37;;;2.13;;
757;SDS011;363;48.764;9.172;2024-02-26T13:48:03;2.40;;;1.60;;
757;SDS011;363;48.764;9.172;2024-02-26T13:50:32;2.30;;;1.50;;
757;SDS011;363;48.764;9.172;2024-02-26T13:52:58;1.47;;;1.37;;
757;SDS011;363;48.764;9.172;2024-02-26T13:55:27;1.30;;;0.93;;
757;SDS011;363;48.764;9.172;2024-02-26T13:57:56;1.40;;;1.30;;
757;SDS011;363;48.764;9.172;2024-02-26T14:00:23;1.35;;;1.25;;
757;SDS011;363;48.764;9.172;2024-02-26T14:02:49;2.35;;;1.45;;
757;SDS011;363;48.764;9.172;2024-02-26T14:05:16;1.80;;;1.00;;
757;SDS011;363;48.764;9.172;2024-02-26T14:07:41;1.13;;;1.03;;
757;SDS011;363;48.764;9.172;2024-02-26T14:10:11;1.45;;;0.80;;
757;SDS011;363;48.764;9.172;2024-02-26T14:12:38;2.80;;;1.20;;
757;SDS011;363;48.764;9.172;2024-02-26T14:15:07;1.50;;;0.88;;
757;SDS011;363;48.764;9.172;2024-02-26T14:17:34;2.08;;;0.90;;
757;SDS011;363;48.764;9.172;2024-02-26T14:20:00;1.87;;;1.33;;
757;SDS011;363;48.764;9.172;2024-02-26T14:22:25;1.70;;;1.60;;
757;SDS011;363;48.764;9.172;2024-02-26T14:24:55;0.90;;;0.80;;
757;SDS011;363;48.764;9.172;2024-02-26T14:27:21;0.70;;;0.70;;
757;SDS011;363;48.764;9.172;2024-02-26T14:29:47;1.00;;;0.80;;
757;SDS011;363;48.764;9.172;2024-02-26T14:32:13;2.50;;;0.60;;
757;SDS011;363;48.764;9.172;2024-02-26T14:34:39;0.80;;;0.70;;
757;SDS011;363;48.764;9.172;2024-02-26T14:37:04;0.70;;;0.60;;
757;SDS011;363;48.764;9.172;2024-02-26T14:39:33;0.70;;;0.50;;
757;SDS011;363;48.764;9.172;2024-02-26T14:41:59;1.00;;;0.70;;
757;SDS011;363;48.764;9.172;2024-02-26T14:44:26;0.80;;;0.70;;
757;SDS011;363;48.764;9.172;2024-02-26T14:46:52;0.90;;;0.80;;
757;SDS011;363;48.764;9.172;2024-02-26T14:49:17;1.10;;;1.00;;
757;SDS011;363;48.764;9.172;2024-02-26T14:51:43;0.80;;;0.80;;
757;SDS011;363;48.764;9.172;2024-02-26T14:54:13;0.90;;;0.73;;
757;SDS011;363;48.764;9.172;2024-02-26T14:56:39;1.00;;;0.80;;
757;SDS011;363;48.764;9.172;2024-02-26T14:59:06;1.67;;;0.98;;
757;SDS011;363;48.764;9.172;2024-02-26T15:01:32;1.07;;;0.90;;
757;SDS011;363;48.764;9.172;2024-02-26T15:03:59;1.30;;;1.10;;
757;SDS011;363;48.764;9.172;2024-02-26T15:06:25;0.80;;;0.70;;
757;SDS011;363;48.764;9.172;2024-02-26T15:08:51;1.27;;;1.05;;
757;SDS011;363;48.764;9.172;2024-02-26T15:11:17;1.13;;;1.03;;
757;SDS011;363;48.764;9.172;2024-02-26T15:13:42;1.73;;;1.10;;
757;SDS011;363;48.764;9.172;2024-02-26T15:16:08;2.80;;;1.23;;
757;SDS011;363;48.764;9.172;2024-02-26T15:18:34;2.13;;;1.92;;
757;SDS011;363;48.764;9.172;2024-02-26T15:21:01;2.00;;;1.40;;
757;SDS011;363;48.764;9.172;2024-02-26T15:23:28;1.70;;;1.45;;
757;SDS011;363;48.764;9.172;2024-02-26T15:25:55;1.30;;;1.20;;
757;SDS011;363;48.764;9.172;2024-02-26T15:28:20;1.57;;;1.47;;
757;SDS011;363;48.764;9.172;2024-02-26T15:30:46;1.20;;;1.10;;
757;SDS011;363;48.764;9.172;2024-02-26T15:33:12;1.20;;;1.10;;
757;SDS011;363;48.764;9.172;2024-02-26T15:35:39;1.40;;;1.30;;
757;SDS011;363;48.764;9.172;2024-02-26T15:38:10;1.40;;;1.20;;
757;SDS011;363;48.764;9.172;2024-02-26T15:40:35;1.93;;;1.60;;
757;SDS011;363;48.764;9.172;2024-02-26T15:43:01;2.70;;;1.53;;
757;SDS011;363;48.764;9.172;2024-02-26T15:45:27;2.73;;;1.20;;
757;SDS011;363;48.764;9.172;2024-02-26T15:47:57;1.35;;;1.25;;
757;SDS011;363;48.764;9.172;2024-02-26T15:50:23;1.80;;;1.23;;
757;SDS011;363;48.764;9.172;2024-02-26T15:52:48;1.37;;;1.27;;
757;SDS011;363;48.764;9.172;2024-02-26T15:55:14;1.60;;;1.50;;
757;SDS011;363;48.764;9.172;2024-02-26T15:57:43;1.80;;;1.40;;
757;SDS011;363;48.764;9.172;2024-02-26T16:00:09;1.30;;;1.20;;
757;SDS011;363;48.764;9.172;2024-02-26T16:02:38;1.48;;;1.25;;
757;SDS011;363;48.764;9.172;2024-02-26T16:05:05;2.58;;;1.60;;
757;SDS011;363;48.764;9.172;2024-02-26T16:07:35;1.98;;;1.77;;
757;SDS011;363;48.764;9.172;2024-02-26T16:10:08;1.70;;;1.60;;
757;SDS011;363;48.764;9.172;2024-02-26T16:12:41;2.03;;;1.83;;
757;SDS011;363;48.764;9.172;2024-02-26T16:15:11;3.53;;;2.00;;
757;SDS011;363;48.764;9.172;2024-02-26T16:17:38;2.58;;;2.35;;
757;SDS011;363;48.764;9.172;2024-02-26T16:20:14;2.30;;;2.10;;
757;SDS011;363;48.764;9.172;2024-02-26T16:22:42;3.10;;;2.90;;
757;SDS011;363;48.764;9.172;2024-02-26T16:25:08;3.35;;;2.90;;
757;SDS011;363;48.764;9.172;2024-02-26T16:27:33;2.73;;;2.00;;
757;SDS011;363;48.764;9.172;2024-02-26T16:30:01;1.60;;;1.50;;
757;SDS011;363;48.764;9.172;2024-02-26T16:32:29;2.20;;;2.00;;
757;SDS011;363;48.764;9.172;2024-02-26T16:34:55;2.58;;;2.00;;
757;SDS011;363;48.764;9.172;2024-02-26T16:37:24;2.25;;;2.03;;
757;SDS011;363;48.764;9.172;2024-02-26T16:39:50;2.80;;;1.88;;
757;SDS011;363;48.764;9.172;2024-02-26T16:42:15;3.60;;;2.30;;
757;SDS011;363;48.764;9.172;2024-02-26T16:44:44;2.53;;;2.13;;
757;SDS011;363;48.764;9.172;2024-02-26T16:47:09;2.87;;;2.43;;
757;SDS011;363;48.764;9.172;2024-02-26T16:49:35;2.90;;;2.20;;
757;SDS011;363;48.764;9.172;2024-02-26T16:52:01;2.13;;;1.90;;
757;SDS011;363;48.764;9.172;2024-02-26T16:54:27;2.33;;;2.17;;
757;SDS011;363;48.764;9.172;2024-02-26T16:56:53;3.08;;;2.38;;
757;SDS011;363;48.764;9.172;2024-02-26T16:59:19;2.63;;;2.20;;
757;SDS011;363;48.764;9.172;2024-02-26T17:01:45;2.80;;;2.60;;
757;SDS011;363;48.764;9.172;2024-02-26T17:04:11;2.42;;;2.22;;
757;SDS011;363;48.764;9.172;2024-02-26T17:06:37;2.65;;;2.40;;
757;SDS011;363;48.764;9.172;2024-02-26T17:09:03;2.93;;;2.37;;
757;SDS011;363;48.764;9.172;2024-02-26T17:11:30;2.65;;;2.20;;
757;SDS011;363;48.764;9.172;2024-02-26T17:13:58;4.22;;;2.30;;
757;SDS011;363;48.764;9.172;2024-02-26T17:16:24;2.80;;;2.30;;
757;SDS011;363;48.764;9.172;2024-02-26T17:18:50;2.90;;;2.60;;
757;SDS011;363;48.764;9.172;2024-02-26T17:21:18;3.17;;;2.40;;
757;SDS011;363;48.764;9.172;2024-02-26T17:23:43;2.60;;;2.40;;
757;SDS011;363;48.764;9.172;2024-02-26T17:26:09;2.60;;;2.40;;
757;SDS011;363;48.764;9.172;2024-02-26T17:28:41;2.55;;;2.35;;
757;SDS011;363;48.764;9.172;2024-02-26T17:31:07;3.80;;;2.20;;
757;SDS011;363;48.764;9.172;2024-02-26T17:33:32;3.00;;;2.70;;
757;SDS011;363;48.764;9.172;2024-02-26T17:35:58;4.63;;;2.30;;
757;SDS011;363;48.764;9.172;2024-02-26T17:38:23;4.93;;;2.63;;
757;SDS011;363;48.764;9.172;2024-02-26T17:40:49;3.40;;;2.17;;
757;SDS011;363;48.764;9.172;2024-02-26T17:43:17;3.77;;;2.53;;
757;SDS011;363;48.764;9.172;2024-02-26T17:45:44;3.58;;;2.65;;
757;SDS011;363;48.764;9.172;2024-02-26T17:48:10;2.80;;;2.50;;
757;SDS011;363;48.764;9.172;2024-02-26T17:50:39;2.40;;;2.20;;
757;SDS011;363;48.764;9.172;2024-02-26T17:53:05;2.55;;;2.35;;
757;SDS011;363;48.764;9.172;2024-02-26T17:55:31;2.70;;;2.50;;
757;SDS011;363;48.764;9.172;2024-02-26T17:57:56;3.00;;;2.67;;
757;SDS011;363;48.764;9.172;2024-02-26T18:00:23;3.67;;;3.03;;
757;SDS011;363;48.764;9.172;2024-02-26T18:02:49;4.87;;;3.13;;
757;SDS011;363;48.764;9.172;2024-02-26T18:05:15;2.57;;;2.37;;
757;SDS011;363;48.764;9.172;2024-02-26T18:07:41;2.80;;;2.50;;
757;SDS011;363;48.764;9.172;2024-02-26T18:10:08;2.88;;;2.47;;
757;SDS011;363;48.764;9.172;2024-02-26T18:12:37;2.78;;;2.50;;
757;SDS011;363;48.764;9.172;2024-02-26T18:15:05;5.38;;;2.95;;
757;SDS011;363;48.764;9.172;2024-02-26T18:17:32;3.97;;;3.05;;
757;SDS011;363;48.764;9.172;2024-02-26T18:20:00;2.90;;;2.60;;
757;SDS011;363;48.764;9.172;2024-02-26T18:22:27;3.22;;;2.40;;
757;SDS011;363;48.764;9.172;2024-02-26T18:24:53;2.97;;;2.67;;